Cyprus Cement — C6UP5 — position and weather

sailwx.info

Track history (hours):
 
Tides and Currents Weather Stations Pressure Air Temp Water Temp Dewpoint Dewpoint Depression Visibility Wind Speed Wind Dir Waves Ship Positions

Cyprus Cement

Last reported at 2015-May-24 00:25 UTC. Time now 2015-May-26 15:56 UTC.
Position N 55°35' E 015°16'.

Length 97 m; draft 7.2 m.

Type: Cargo ship. MMSI: 311988000.

Date/timePositionNaut miles runAvg speedWind from/ knotsBaromVisibWave heightAir tempDewpointWater temp
2015-May-24 00:25N 55°35' E 015°16'9 9.4
2015-May-23 23:30N 55°31' E 015°02'1211.9
2015-May-23 22:27N 55°25' E 014°43'1011.4
2015-May-23 21:33N 55°17' E 014°30'1211.7
2015-May-23 20:33N 55°08' E 014°18'1111.5
2015-May-23 19:33N 55°00' E 014°04'4811.9
2015-May-23 15:29N 54°45' E 012°44'2311.2
2015-May-23 13:27N 54°29' E 012°15'1010.6
2015-May-23 12:32N 54°25' E 012°01'1212.1
2015-May-23 11:33N 54°27' E 011°40'1211.8
2015-May-23 10:33N 54°32' E 011°22'1111.2
2015-May-23 09:33N 54°35' E 011°04'1211.4
2015-May-23 08:33N 54°34' E 010°44'1111.3
2015-May-23 07:33N 54°31' E 010°25'1010.2
2015-May-23 06:33N 54°24' E 010°13'3 3.4
2015-May-23 05:33N 54°22' E 010°09'6 6.1
2015-May-23 04:33N 54°21' E 009°58'8 7.8
2015-May-23 03:33N 54°20' E 009°45'8 7.7
2015-May-23 02:33N 54°14' E 009°37'8 7.4
2015-May-23 01:32N 54°10' E 009°26'15 7.7
2015-May-22 23:33N 53°57' E 009°14'4 4.2
2015-May-22 22:33N 53°54' E 009°09'1 0.9
2015-May-22 21:33N 53°53' E 009°10'0 0.2
2015-May-22 20:33N 53°53' E 009°10'1 1.3
2015-May-22 19:33N 53°53' E 009°12'1212.4
2015-May-22 18:33N 53°44' E 009°27'1110.8
2015-May-22 17:33N 53°35' E 009°37'10 9.8
2015-May-22 16:33N 53°33' E 009°53'4 3.6
2015-May-22 15:29N 53°30' E 009°57'0 0.0
2015-May-22 14:29N 53°30' E 009°57'0 0.0
2015-May-22 13:29N 53°30' E 009°57'0 0.0
2015-May-22 12:33N 53°30' E 009°57'0 0.0
2015-May-22 11:33N 53°30' E 009°57'0 0.0
2015-May-22 10:33N 53°30' E 009°57'0 0.0
2015-May-22 09:30N 53°30' E 009°57'0 0.0
2015-May-22 08:32N 53°30' E 009°57'0 0.0
2015-May-22 07:32N 53°30' E 009°57'0 0.0
2015-May-22 06:32N 53°30' E 009°57'0 0.0
2015-May-22 05:08N 53°30' E 009°57'0 0.0
2015-May-22 04:23N 53°30' E 009°57'0 0.0
2015-May-22 02:17N 53°30' E 009°57'0 0.0
2015-May-22 01:33N 53°30' E 009°57'0 0.0
2015-May-22 00:30N 53°30' E 009°57'0 0.0
2015-May-21 23:33N 53°30' E 009°57'0 0.0
2015-May-21 22:30N 53°30' E 009°57'0 0.0
2015-May-21 21:30N 53°30' E 009°57'0 0.0
2015-May-21 20:30N 53°30' E 009°57'0 0.0
2015-May-21 19:33N 53°30' E 009°57'0 0.0
2015-May-21 18:33N 53°30' E 009°57'0 0.0
2015-May-21 17:33N 53°30' E 009°57'0 0.0
2015-May-21 16:30N 53°30' E 009°57'0 0.0
2015-May-21 15:33N 53°30' E 009°57'0 0.0
2015-May-21 14:33N 53°30' E 009°57'0 0.0
2015-May-21 13:30N 53°30' E 009°57'0 0.0
2015-May-21 12:33N 53°30' E 009°57'0 0.0
2015-May-21 11:30N 53°30' E 009°57'0 0.0
2015-May-21 10:33N 53°30' E 009°57'0 0.0
2015-May-21 09:33N 53°30' E 009°57'0 0.0
2015-May-21 08:30N 53°30' E 009°57'0 0.0
2015-May-21 07:32N 53°30' E 009°57'0 0.0
2015-May-21 06:14N 53°30' E 009°57'0 0.0
2015-May-21 04:32N 53°30' E 009°57'0 0.0
2015-May-21 03:26N 53°30' E 009°57'0 0.0
2015-May-21 02:27N 53°30' E 009°57'0 0.0
2015-May-21 01:33N 53°30' E 009°57'0 0.0
2015-May-21 00:33N 53°30' E 009°57'0 0.0
2015-May-20 23:30N 53°30' E 009°57'0 0.0
2015-May-20 22:30N 53°30' E 009°57'0 0.0
2015-May-20 21:30N 53°30' E 009°57'0 0.0
2015-May-20 20:33N 53°30' E 009°57'0 0.0
2015-May-20 19:30N 53°30' E 009°57'0 0.0
2015-May-20 18:34N 53°30' E 009°57'3 3.2
2015-May-20 17:33N 53°32' E 009°55'5 5.4
2015-May-20 16:34N 53°34' E 009°46'9 9.1
2015-May-20 15:33N 53°38' E 009°32'1111.1
2015-May-20 14:34N 53°47' E 009°23'1110.6
2015-May-20 13:33N 53°54' E 009°09'3 2.9
2015-May-20 12:33N 53°56' E 009°12'8 8.4
2015-May-20 11:33N 54°03' E 009°18'8 7.5
2015-May-20 10:27N 54°10' E 009°26'3 3.6
2015-May-20 09:33N 54°11' E 009°31'8 8.0
2015-May-20 08:33N 54°17' E 009°40'7 7.2
2015-May-20 07:33N 54°22' E 009°50'6 6.5
2015-May-20 06:33N 54°22' E 010°01'5 4.5
2015-May-20 05:33N 54°22' E 010°09'3 2.5
2015-May-20 04:34N 54°24' E 010°12'1010.4
2015-May-20 03:33N 54°31' E 010°24'1211.6
2015-May-20 02:33N 54°35' E 010°43'1211.6
2015-May-20 01:33N 54°36' E 011°03'1111.5
2015-May-20 00:33N 54°33' E 011°22'1211.5
2015-May-19 23:33N 54°28' E 011°40'1212.3
2015-May-19 22:33N 54°27' E 012°01'3711.3
2015-May-19 19:15N 54°57' E 012°38'912.0
2015-May-19 18:31N 55°06' E 012°38'1212.0
2015-May-19 17:33N 55°17' E 012°37'1211.8
2015-May-19 16:33N 55°29' E 012°41'1010.4
2015-May-19 15:33N 55°37' E 012°53'5 4.3
2015-May-19 14:31N 55°38' E 013°01'0 0.0
2015-May-19 13:31N 55°38' E 013°01'0 0.0
2015-May-19 12:31N 55°38' E 013°01'0 0.0
2015-May-19 11:31N 55°38' E 013°01'0 0.0
2015-May-19 10:31N 55°38' E 013°01'0 0.0
2015-May-19 09:31N 55°38' E 013°01'0 0.0
2015-May-19 08:31N 55°38' E 013°01'0 0.0
2015-May-19 07:28N 55°38' E 013°01'0 0.0
2015-May-19 06:31N 55°38' E 013°01'0 0.0
2015-May-19 05:31N 55°38' E 013°01'0 0.0
2015-May-19 04:31N 55°38' E 013°01'0 0.0
2015-May-19 03:28N 55°38' E 013°01'0 0.0
2015-May-19 02:31N 55°38' E 013°01'0 0.0
2015-May-19 01:31N 55°38' E 013°01'0 0.0
2015-May-19 00:28N 55°38' E 013°01'0 0.0
2015-May-18 23:28N 55°38' E 013°01'0 0.0
2015-May-18 22:31N 55°38' E 013°01'0 0.0
2015-May-18 21:31N 55°38' E 013°01'0 0.0
2015-May-18 20:31N 55°38' E 013°01'0 0.0
2015-May-18 19:31N 55°38' E 013°01'0 0.0
2015-May-18 18:31N 55°38' E 013°01'0 0.0
2015-May-18 17:31N 55°38' E 013°01'0 0.0
2015-May-18 16:31N 55°38' E 013°01'0 0.0
2015-May-18 15:28N 55°38' E 013°01'0 0.0
2015-May-18 14:28N 55°38' E 013°01'0 0.0
2015-May-18 13:32N 55°38' E 013°01'2 1.8
2015-May-18 12:33N 55°38' E 012°58'8 7.7
2015-May-18 11:33N 55°33' E 012°48'10 9.8
2015-May-18 10:33N 55°24' E 012°41'9 8.7
2015-May-18 09:33N 55°17' E 012°50'1111.3
2015-May-18 08:33N 55°15' E 013°09'1211.7
2015-May-18 07:33N 55°15' E 013°30'1211.6
2015-May-18 06:33N 55°14' E 013°50'1211.5
2015-May-18 05:33N 55°13' E 014°10'1010.2
2015-May-18 04:33N 55°19' E 014°25'1111.4
2015-May-18 03:33N 55°28' E 014°38'1111.2
2015-May-18 02:33N 55°33' E 014°55'1111.2
2015-May-18 01:33N 55°39' E 015°13'30 0.7
2015-May-16 05:04N 55°49' E 016°02'812.6
2015-May-16 04:28N 55°46' E 015°50'1112.7
2015-May-16 03:34N 55°41' E 015°32'1312.9
2015-May-16 02:33N 55°34' E 015°12'1313.1
2015-May-16 01:33N 55°28' E 014°52'1312.7
2015-May-16 00:33N 55°20' E 014°34'1312.8
2015-May-15 23:34N 55°11' E 014°19'1212.0
2015-May-15 22:33N 55°11' E 013°58'2712.4
2015-May-15 20:23N 55°14' E 013°11'1012.6
2015-May-15 19:33N 55°15' E 012°53'1110.6
2015-May-15 18:33N 55°21' E 012°38'1211.7
2015-May-15 17:33N 55°32' E 012°46'9 8.9
2015-May-15 16:33N 55°38' E 012°58'2 1.6
2015-May-15 15:31N 55°38' E 013°01'0 0.0
2015-May-15 14:31N 55°38' E 013°01'0 0.0
2015-May-15 13:31N 55°38' E 013°01'0 0.0
2015-May-15 12:31N 55°38' E 013°01'0 0.0
2015-May-15 11:31N 55°38' E 013°01'0 0.0
2015-May-15 10:31N 55°38' E 013°01'0 0.0
2015-May-15 09:31N 55°38' E 013°01'0 0.0
2015-May-15 08:31N 55°38' E 013°01'0 0.0
2015-May-15 07:31N 55°38' E 013°01'0 0.0
2015-May-15 06:31N 55°38' E 013°01'0 0.0
2015-May-15 05:28N 55°38' E 013°01'0 0.0
2015-May-15 04:31N 55°38' E 013°01'0 0.0
2015-May-15 03:31N 55°38' E 013°01'0 0.0
2015-May-15 02:31N 55°38' E 013°01'0 0.0
2015-May-15 01:28N 55°38' E 013°01'0 0.0
2015-May-15 00:28N 55°38' E 013°01'0 0.0
2015-May-14 23:31N 55°38' E 013°01'0 0.0
2015-May-14 22:31N 55°38' E 013°01'0 0.0
2015-May-14 21:31N 55°38' E 013°01'0 0.0
2015-May-14 20:31N 55°38' E 013°01'0 0.0
2015-May-14 19:31N 55°38' E 013°01'0 0.0
2015-May-14 18:31N 55°38' E 013°01'0 0.0
2015-May-14 17:31N 55°38' E 013°01'0 0.0
2015-May-14 16:31N 55°38' E 013°01'0 0.0
2015-May-14 15:28N 55°38' E 013°01'0 0.4
2015-May-14 14:34N 55°37' E 013°00'5 5.4
2015-May-14 13:34N 55°36' E 012°51'10 9.7
2015-May-14 12:34N 55°27' E 012°42'10 9.9
2015-May-14 11:33N 55°18' E 012°45'1111.4
2015-May-14 10:34N 55°15' E 013°05'1211.7
2015-May-14 09:33N 55°15' E 013°26'1211.9
2015-May-14 08:30N 55°14' E 013°47'1211.9
2015-May-14 07:28N 55°14' E 014°09'910.5
2015-May-14 06:33N 55°18' E 014°24'1211.8
2015-May-14 05:33N 55°27' E 014°37'1211.7
2015-May-14 04:33N 55°33' E 014°55'1211.8
2015-May-14 03:33N 55°39' E 015°13'1711.8
2015-May-14 02:09N 55°47' E 015°39'  
Track history (hours):
 
Tides and Currents Weather Stations Pressure Air Temp Water Temp Dewpoint Dewpoint Depression Visibility Wind Speed Wind Dir Waves Ship Positions

Cyprus Cement

Last reported at 2015-May-24 00:25 UTC. Time now 2015-May-26 15:56 UTC.
Position N 55°35' E 015°16'.

Length 97 m; draft 7.2 m.

Type: Cargo ship. MMSI: 311988000.

Date/timePositionNaut miles runAvg speedWind from/ knotsBaromVisibWave heightAir tempDewpointWater temp
2015-May-24 00:25N 55°35' E 015°16'9 9.4
2015-May-23 23:30N 55°31' E 015°02'1211.9
2015-May-23 22:27N 55°25' E 014°43'1011.4
2015-May-23 21:33N 55°17' E 014°30'1211.7
2015-May-23 20:33N 55°08' E 014°18'1111.5
2015-May-23 19:33N 55°00' E 014°04'4811.9
2015-May-23 15:29N 54°45' E 012°44'2311.2
2015-May-23 13:27N 54°29' E 012°15'1010.6
2015-May-23 12:32N 54°25' E 012°01'1212.1
2015-May-23 11:33N 54°27' E 011°40'1211.8
2015-May-23 10:33N 54°32' E 011°22'1111.2
2015-May-23 09:33N 54°35' E 011°04'1211.4
2015-May-23 08:33N 54°34' E 010°44'1111.3
2015-May-23 07:33N 54°31' E 010°25'1010.2
2015-May-23 06:33N 54°24' E 010°13'3 3.4
2015-May-23 05:33N 54°22' E 010°09'6 6.1
2015-May-23 04:33N 54°21' E 009°58'8 7.8
2015-May-23 03:33N 54°20' E 009°45'8 7.7
2015-May-23 02:33N 54°14' E 009°37'8 7.4
2015-May-23 01:32N 54°10' E 009°26'15 7.7
2015-May-22 23:33N 53°57' E 009°14'4 4.2
2015-May-22 22:33N 53°54' E 009°09'1 0.9
2015-May-22 21:33N 53°53' E 009°10'0 0.2
2015-May-22 20:33N 53°53' E 009°10'1 1.3
2015-May-22 19:33N 53°53' E 009°12'1212.4
2015-May-22 18:33N 53°44' E 009°27'1110.8
2015-May-22 17:33N 53°35' E 009°37'10 9.8
2015-May-22 16:33N 53°33' E 009°53'4 3.6
2015-May-22 15:29N 53°30' E 009°57'0 0.0
2015-May-22 14:29N 53°30' E 009°57'0 0.0
2015-May-22 13:29N 53°30' E 009°57'0 0.0
2015-May-22 12:33N 53°30' E 009°57'0 0.0
2015-May-22 11:33N 53°30' E 009°57'0 0.0
2015-May-22 10:33N 53°30' E 009°57'0 0.0
2015-May-22 09:30N 53°30' E 009°57'0 0.0
2015-May-22 08:32N 53°30' E 009°57'0 0.0
2015-May-22 07:32N 53°30' E 009°57'0 0.0
2015-May-22 06:32N 53°30' E 009°57'0 0.0
2015-May-22 05:08N 53°30' E 009°57'0 0.0
2015-May-22 04:23N 53°30' E 009°57'0 0.0
2015-May-22 02:17N 53°30' E 009°57'0 0.0
2015-May-22 01:33N 53°30' E 009°57'0 0.0
2015-May-22 00:30N 53°30' E 009°57'0 0.0
2015-May-21 23:33N 53°30' E 009°57'0 0.0
2015-May-21 22:30N 53°30' E 009°57'0 0.0
2015-May-21 21:30N 53°30' E 009°57'0 0.0
2015-May-21 20:30N 53°30' E 009°57'0 0.0
2015-May-21 19:33N 53°30' E 009°57'0 0.0
2015-May-21 18:33N 53°30' E 009°57'0 0.0
2015-May-21 17:33N 53°30' E 009°57'0 0.0
2015-May-21 16:30N 53°30' E 009°57'0 0.0
2015-May-21 15:33N 53°30' E 009°57'0 0.0
2015-May-21 14:33N 53°30' E 009°57'0 0.0
2015-May-21 13:30N 53°30' E 009°57'0 0.0
2015-May-21 12:33N 53°30' E 009°57'0 0.0
2015-May-21 11:30N 53°30' E 009°57'0 0.0
2015-May-21 10:33N 53°30' E 009°57'0 0.0
2015-May-21 09:33N 53°30' E 009°57'0 0.0
2015-May-21 08:30N 53°30' E 009°57'0 0.0
2015-May-21 07:32N 53°30' E 009°57'0 0.0
2015-May-21 06:14N 53°30' E 009°57'0 0.0
2015-May-21 04:32N 53°30' E 009°57'0 0.0
2015-May-21 03:26N 53°30' E 009°57'0 0.0
2015-May-21 02:27N 53°30' E 009°57'0 0.0
2015-May-21 01:33N 53°30' E 009°57'0 0.0
2015-May-21 00:33N 53°30' E 009°57'0 0.0
2015-May-20 23:30N 53°30' E 009°57'0 0.0
2015-May-20 22:30N 53°30' E 009°57'0 0.0
2015-May-20 21:30N 53°30' E 009°57'0 0.0
2015-May-20 20:33N 53°30' E 009°57'0 0.0
2015-May-20 19:30N 53°30' E 009°57'0 0.0
2015-May-20 18:34N 53°30' E 009°57'3 3.2
2015-May-20 17:33N 53°32' E 009°55'5 5.4
2015-May-20 16:34N 53°34' E 009°46'9 9.1
2015-May-20 15:33N 53°38' E 009°32'1111.1
2015-May-20 14:34N 53°47' E 009°23'1110.6
2015-May-20 13:33N 53°54' E 009°09'3 2.9
2015-May-20 12:33N 53°56' E 009°12'8 8.4
2015-May-20 11:33N 54°03' E 009°18'8 7.5
2015-May-20 10:27N 54°10' E 009°26'3 3.6
2015-May-20 09:33N 54°11' E 009°31'8 8.0
2015-May-20 08:33N 54°17' E 009°40'7 7.2
2015-May-20 07:33N 54°22' E 009°50'6 6.5
2015-May-20 06:33N 54°22' E 010°01'5 4.5
2015-May-20 05:33N 54°22' E 010°09'3 2.5
2015-May-20 04:34N 54°24' E 010°12'1010.4
2015-May-20 03:33N 54°31' E 010°24'1211.6
2015-May-20 02:33N 54°35' E 010°43'1211.6
2015-May-20 01:33N 54°36' E 011°03'1111.5
2015-May-20 00:33N 54°33' E 011°22'1211.5
2015-May-19 23:33N 54°28' E 011°40'1212.3
2015-May-19 22:33N 54°27' E 012°01'3711.3
2015-May-19 19:15N 54°57' E 012°38'912.0
2015-May-19 18:31N 55°06' E 012°38'1212.0
2015-May-19 17:33N 55°17' E 012°37'1211.8
2015-May-19 16:33N 55°29' E 012°41'1010.4
2015-May-19 15:33N 55°37' E 012°53'5 4.3
2015-May-19 14:31N 55°38' E 013°01'0 0.0
2015-May-19 13:31N 55°38' E 013°01'0 0.0
2015-May-19 12:31N 55°38' E 013°01'0 0.0
2015-May-19 11:31N 55°38' E 013°01'0 0.0
2015-May-19 10:31N 55°38' E 013°01'0 0.0
2015-May-19 09:31N 55°38' E 013°01'0 0.0
2015-May-19 08:31N 55°38' E 013°01'0 0.0
2015-May-19 07:28N 55°38' E 013°01'0 0.0
2015-May-19 06:31N 55°38' E 013°01'0 0.0
2015-May-19 05:31N 55°38' E 013°01'0 0.0
2015-May-19 04:31N 55°38' E 013°01'0 0.0
2015-May-19 03:28N 55°38' E 013°01'0 0.0
2015-May-19 02:31N 55°38' E 013°01'0 0.0
2015-May-19 01:31N 55°38' E 013°01'0 0.0
2015-May-19 00:28N 55°38' E 013°01'0 0.0
2015-May-18 23:28N 55°38' E 013°01'0 0.0
2015-May-18 22:31N 55°38' E 013°01'0 0.0
2015-May-18 21:31N 55°38' E 013°01'0 0.0
2015-May-18 20:31N 55°38' E 013°01'0 0.0
2015-May-18 19:31N 55°38' E 013°01'0 0.0
2015-May-18 18:31N 55°38' E 013°01'0 0.0
2015-May-18 17:31N 55°38' E 013°01'0 0.0
2015-May-18 16:31N 55°38' E 013°01'0 0.0
2015-May-18 15:28N 55°38' E 013°01'0 0.0
2015-May-18 14:28N 55°38' E 013°01'0 0.0
2015-May-18 13:32N 55°38' E 013°01'2 1.8
2015-May-18 12:33N 55°38' E 012°58'8 7.7
2015-May-18 11:33N 55°33' E 012°48'10 9.8
2015-May-18 10:33N 55°24' E 012°41'9 8.7
2015-May-18 09:33N 55°17' E 012°50'1111.3
2015-May-18 08:33N 55°15' E 013°09'1211.7
2015-May-18 07:33N 55°15' E 013°30'1211.6
2015-May-18 06:33N 55°14' E 013°50'1211.5
2015-May-18 05:33N 55°13' E 014°10'1010.2
2015-May-18 04:33N 55°19' E 014°25'1111.4
2015-May-18 03:33N 55°28' E 014°38'1111.2
2015-May-18 02:33N 55°33' E 014°55'1111.2
2015-May-18 01:33N 55°39' E 015°13'30 0.7
2015-May-16 05:04N 55°49' E 016°02'812.6
2015-May-16 04:28N 55°46' E 015°50'1112.7
2015-May-16 03:34N 55°41' E 015°32'1312.9
2015-May-16 02:33N 55°34' E 015°12'1313.1
2015-May-16 01:33N 55°28' E 014°52'1312.7
2015-May-16 00:33N 55°20' E 014°34'1312.8
2015-May-15 23:34N 55°11' E 014°19'1212.0
2015-May-15 22:33N 55°11' E 013°58'2712.4
2015-May-15 20:23N 55°14' E 013°11'1012.6
2015-May-15 19:33N 55°15' E 012°53'1110.6
2015-May-15 18:33N 55°21' E 012°38'1211.7
2015-May-15 17:33N 55°32' E 012°46'9 8.9
2015-May-15 16:33N 55°38' E 012°58'2 1.6
2015-May-15 15:31N 55°38' E 013°01'0 0.0
2015-May-15 14:31N 55°38' E 013°01'0 0.0
2015-May-15 13:31N 55°38' E 013°01'0 0.0
2015-May-15 12:31N 55°38' E 013°01'0 0.0
2015-May-15 11:31N 55°38' E 013°01'0 0.0
2015-May-15 10:31N 55°38' E 013°01'0 0.0
2015-May-15 09:31N 55°38' E 013°01'0 0.0
2015-May-15 08:31N 55°38' E 013°01'0 0.0
2015-May-15 07:31N 55°38' E 013°01'0 0.0
2015-May-15 06:31N 55°38' E 013°01'0 0.0
2015-May-15 05:28N 55°38' E 013°01'0 0.0
2015-May-15 04:31N 55°38' E 013°01'0 0.0
2015-May-15 03:31N 55°38' E 013°01'0 0.0
2015-May-15 02:31N 55°38' E 013°01'0 0.0
2015-May-15 01:28N 55°38' E 013°01'0 0.0
2015-May-15 00:28N 55°38' E 013°01'0 0.0
2015-May-14 23:31N 55°38' E 013°01'0 0.0
2015-May-14 22:31N 55°38' E 013°01'0 0.0
2015-May-14 21:31N 55°38' E 013°01'0 0.0
2015-May-14 20:31N 55°38' E 013°01'0 0.0
2015-May-14 19:31N 55°38' E 013°01'0 0.0
2015-May-14 18:31N 55°38' E 013°01'0 0.0
2015-May-14 17:31N 55°38' E 013°01'0 0.0
2015-May-14 16:31N 55°38' E 013°01'0 0.0
2015-May-14 15:28N 55°38' E 013°01'0 0.4
2015-May-14 14:34N 55°37' E 013°00'5 5.4
2015-May-14 13:34N 55°36' E 012°51'10 9.7
2015-May-14 12:34N 55°27' E 012°42'10 9.9
2015-May-14 11:33N 55°18' E 012°45'1111.4
2015-May-14 10:34N 55°15' E 013°05'1211.7
2015-May-14 09:33N 55°15' E 013°26'1211.9
2015-May-14 08:30N 55°14' E 013°47'1211.9
2015-May-14 07:28N 55°14' E 014°09'910.5
2015-May-14 06:33N 55°18' E 014°24'1211.8
2015-May-14 05:33N 55°27' E 014°37'1211.7
2015-May-14 04:33N 55°33' E 014°55'1211.8
2015-May-14 03:33N 55°39' E 015°13'1711.8
2015-May-14 02:09N 55°47' E 015°39'  

Dump ship's entire track history